createdAt,value
2023-05-02T00:02:08.648Z,100418.44
2023-05-02T00:04:38.087Z,100361.66
2023-05-02T00:07:06.751Z,100425.28
2023-05-02T00:09:34.684Z,100383.56
2023-05-02T00:12:02.538Z,100421.94
2023-05-02T00:14:30.379Z,100427.44
2023-05-02T00:16:58.239Z,100392.69
2023-05-02T00:19:26.093Z,100430.28
2023-05-02T00:21:55.685Z,100401.34
2023-05-02T00:24:23.466Z,100418.59
2023-05-02T00:26:51.341Z,100424.69
2023-05-02T00:29:19.430Z,100432.97
2023-05-02T00:31:47.412Z,100435.84
2023-05-02T00:34:15.255Z,100432.25
2023-05-02T00:36:43.067Z,100409.22
2023-05-02T00:39:12.321Z,100423.13
2023-05-02T00:41:40.129Z,100430.56
2023-05-02T00:44:08.484Z,100413.31
2023-05-02T00:46:36.464Z,100438.69
2023-05-02T00:49:04.401Z,100414.91
2023-05-02T00:51:34.210Z,100439.56
2023-05-02T00:54:02.395Z,100440.16
2023-05-02T00:56:31.583Z,100440.31
2023-05-02T00:59:01.471Z,100433.97
2023-05-02T01:01:38.122Z,100432.34
2023-05-02T01:04:18.459Z,100431.50
2023-05-02T01:06:53.025Z,100434.19
2023-05-02T01:09:31.238Z,100392.88
2023-05-02T01:12:04.318Z,100435.66
2023-05-02T01:14:36.423Z,100358.44
2023-05-02T01:17:08.656Z,100443.19
2023-05-02T01:19:39.259Z,100432.50
2023-05-02T01:22:10.011Z,100438.63
2023-05-02T01:24:45.221Z,100357.34
2023-05-02T01:27:24.662Z,100430.41
2023-05-02T01:29:54.712Z,100450.56
2023-05-02T01:32:24.833Z,100377.38
2023-05-02T01:34:53.678Z,100448.69
2023-05-02T01:37:23.645Z,100460.41
2023-05-02T01:39:53.269Z,100454.31
2023-05-02T01:42:22.232Z,100464.34
2023-05-02T01:44:51.546Z,100462.72
2023-05-02T01:47:22.429Z,100463.41
2023-05-02T01:49:51.126Z,100463.75
2023-05-02T01:52:24.092Z,100468.19
2023-05-02T01:54:54.312Z,100439.72
2023-05-02T01:57:22.845Z,100475.50
2023-05-02T01:59:51.683Z,100481.28
2023-05-02T02:02:21.987Z,100479.47
2023-05-02T02:04:49.984Z,100486.53
2023-05-02T02:07:17.888Z,100488.97
2023-05-02T02:09:45.749Z,100489.28
2023-05-02T02:12:24.312Z,100442.94
2023-05-02T02:14:58.231Z,100483.63
2023-05-02T02:17:33.468Z,100483.84
2023-05-02T02:20:04.337Z,100491.69
2023-05-02T02:22:36.923Z,100491.94
2023-05-02T02:25:07.430Z,100498.16
2023-05-02T02:27:35.907Z,100491.19
2023-05-02T02:30:03.897Z,100476.72
2023-05-02T02:32:33.153Z,100485.53
2023-05-02T02:35:03.015Z,100496.59
2023-05-02T02:37:33.576Z,100489.75
2023-05-02T02:40:09.182Z,100475.50
2023-05-02T02:42:44.838Z,100506.22
2023-05-02T02:45:23.811Z,100503.41
2023-05-02T02:48:01.717Z,100410.09
2023-05-02T02:50:35.922Z,100503.47
2023-05-02T02:53:06.739Z,100473.09
2023-05-02T02:55:41.637Z,100494.81
2023-05-02T02:58:31.603Z,100487.56
2023-05-02T03:01:03.974Z,100511.19
2023-05-02T03:03:34.087Z,100519.53
2023-05-02T03:06:02.272Z,100502.09
2023-05-02T03:08:40.373Z,100530.75
2023-05-02T03:11:10.394Z,100533.81
2023-05-02T03:13:38.557Z,100530.84
2023-05-02T03:16:33.721Z,100536.59
2023-05-02T03:19:04.032Z,100540.63
2023-05-02T03:21:32.411Z,100512.06
2023-05-02T03:24:07.259Z,100544.66
2023-05-02T03:26:35.369Z,100543.56
2023-05-02T03:29:03.624Z,100553.78
2023-05-02T03:31:37.048Z,100547.50
2023-05-02T03:34:07.102Z,100546.69
2023-05-02T03:36:36.635Z,100553.00
2023-05-02T03:39:04.491Z,100554.78
2023-05-02T03:41:32.351Z,100532.22
2023-05-02T03:44:06.313Z,100562.81
2023-05-02T03:46:34.551Z,100569.19
2023-05-02T03:49:06.593Z,100545.00
2023-05-02T03:51:36.001Z,100560.72
2023-05-02T03:54:04.138Z,100560.94
2023-05-02T03:56:33.187Z,100546.16
2023-05-02T03:59:18.552Z,100553.72
2023-05-02T04:01:49.993Z,100556.91
2023-05-02T04:04:21.320Z,100547.16
2023-05-02T04:06:52.422Z,100574.50
2023-05-02T04:09:25.117Z,100564.41
2023-05-02T04:11:57.921Z,100580.34
2023-05-02T04:14:25.997Z,100581.44
2023-05-02T04:16:55.902Z,100574.22
2023-05-02T04:19:35.132Z,100594.63
2023-05-02T04:22:04.213Z,100592.19
2023-05-02T04:24:35.920Z,100597.78
2023-05-02T04:27:04.076Z,100557.34
2023-05-02T04:29:32.705Z,100604.53
2023-05-02T04:32:01.189Z,100606.69
2023-05-02T04:34:30.809Z,100589.13
2023-05-02T04:37:02.468Z,100597.06
2023-05-02T04:39:31.504Z,100620.44
2023-05-02T04:42:06.120Z,100620.34
2023-05-02T04:44:40.099Z,100630.22
2023-05-02T04:47:08.329Z,100626.53
2023-05-02T04:49:36.410Z,100638.16
2023-05-02T04:52:06.323Z,100610.09
2023-05-02T04:54:35.626Z,100651.41
2023-05-02T04:57:03.963Z,100646.03
2023-05-02T04:59:35.249Z,100639.06
2023-05-02T05:02:04.630Z,100653.34
2023-05-02T05:04:32.548Z,100658.59
2023-05-02T05:07:01.694Z,100659.38
2023-05-02T05:09:31.883Z,100669.50
2023-05-02T05:11:59.752Z,100668.66
2023-05-02T05:14:27.797Z,100673.09
2023-05-02T05:16:57.943Z,100657.69
2023-05-02T05:19:26.209Z,100676.78
2023-05-02T05:21:54.411Z,100675.31
2023-05-02T05:24:23.097Z,100655.78
2023-05-02T05:26:54.404Z,100595.88
2023-05-02T05:29:23.060Z,100669.94
2023-05-02T05:31:51.001Z,100670.66
2023-05-02T05:34:21.063Z,100678.03
2023-05-02T05:36:50.332Z,100628.91
2023-05-02T05:39:19.558Z,100681.28
2023-05-02T05:41:51.648Z,100683.97
2023-05-02T05:44:22.050Z,100706.16
2023-05-02T05:46:51.012Z,100706.25
2023-05-02T05:49:21.994Z,100712.22
2023-05-02T05:51:50.307Z,100715.00
2023-05-02T05:54:19.417Z,100711.91
2023-05-02T05:56:47.336Z,100724.44
2023-05-02T05:59:18.628Z,100718.50
2023-05-02T06:01:47.857Z,100704.84
2023-05-02T06:04:17.612Z,100725.63
2023-05-02T06:06:51.516Z,100733.94
2023-05-02T06:09:19.497Z,100737.50
2023-05-02T06:11:47.364Z,100738.38
2023-05-02T06:14:15.315Z,100754.97
2023-05-02T06:16:45.229Z,100773.34
2023-05-02T06:19:15.772Z,100778.34
2023-05-02T06:21:43.671Z,100786.03
2023-05-02T06:24:11.519Z,100796.94
2023-05-02T06:26:39.654Z,100797.22
2023-05-02T06:29:07.440Z,100806.56
2023-05-02T06:31:35.349Z,100762.63
2023-05-02T06:34:03.637Z,100810.84
2023-05-02T06:36:32.997Z,100748.97
2023-05-02T06:39:01.496Z,100827.84
2023-05-02T06:41:29.361Z,100839.81
2023-05-02T06:43:57.575Z,100840.09
2023-05-02T06:46:25.507Z,100836.84
2023-05-02T06:48:53.366Z,100803.75
2023-05-02T06:51:22.375Z,100793.53
2023-05-02T06:53:51.917Z,100855.59
2023-05-02T06:56:20.007Z,100858.78
2023-05-02T06:58:47.821Z,100868.34
2023-05-02T07:01:15.752Z,100880.78
2023-05-02T07:03:43.774Z,100859.38
2023-05-02T07:06:11.712Z,100871.31
2023-05-02T07:08:39.530Z,100773.53
2023-05-02T07:11:08.796Z,100894.34
2023-05-02T07:13:36.619Z,100899.03
2023-05-02T07:16:04.660Z,100886.94
2023-05-02T07:18:32.560Z,100916.22
2023-05-02T07:21:01.364Z,100917.03
2023-05-02T07:23:29.208Z,100922.63
2023-05-02T07:25:57.104Z,100929.50
2023-05-02T07:28:26.464Z,100769.97
2023-05-02T07:30:54.293Z,100933.13
2023-05-02T07:33:22.304Z,100902.84
2023-05-02T07:35:50.320Z,100938.25
2023-05-02T07:38:18.200Z,100946.50
2023-05-02T07:40:46.981Z,100947.88
2023-05-02T07:43:16.201Z,100950.94
2023-05-02T07:45:45.411Z,100950.25
2023-05-02T07:48:13.372Z,100927.91
2023-05-02T07:50:41.417Z,100958.31
2023-05-02T07:53:09.254Z,100964.72
2023-05-02T07:55:37.038Z,100965.59
2023-05-02T07:58:04.962Z,100971.63
2023-05-02T08:00:32.815Z,100985.31
2023-05-02T08:03:02.218Z,100970.94
2023-05-02T08:05:30.066Z,100988.16
2023-05-02T08:07:57.994Z,100993.41
2023-05-02T08:10:26.354Z,101006.44
2023-05-02T08:12:54.188Z,100933.28
2023-05-02T08:15:22.092Z,101010.50
2023-05-02T08:17:49.993Z,100921.69
2023-05-02T08:20:19.380Z,101028.19
2023-05-02T08:22:47.298Z,101022.28
2023-05-02T08:25:15.207Z,101033.09
2023-05-02T08:27:43.015Z,100956.34
2023-05-02T08:30:11.329Z,101034.50
2023-05-02T08:32:39.182Z,101039.63
2023-05-02T08:35:08.016Z,101039.41
2023-05-02T08:37:37.408Z,101046.97
2023-05-02T08:40:06.190Z,101042.50
2023-05-02T08:42:34.573Z,101031.06
2023-05-02T08:45:02.776Z,101050.34
2023-05-02T08:47:32.929Z,101057.72
2023-05-02T08:50:01.757Z,101028.03
2023-05-02T08:52:30.662Z,101044.97
2023-05-02T08:55:01.884Z,101068.47
2023-05-02T08:57:30.928Z,100985.44
2023-05-02T08:59:58.855Z,101082.50
2023-05-02T09:02:49.184Z,101097.13
2023-05-02T09:05:21.043Z,101096.28
2023-05-02T09:07:50.314Z,101093.31
2023-05-02T09:10:20.219Z,101096.91
2023-05-02T09:12:48.396Z,101102.97
2023-05-02T09:15:20.590Z,101097.75
2023-05-02T09:17:49.550Z,101107.53
2023-05-02T09:20:17.912Z,101116.63
2023-05-02T09:22:54.664Z,101111.75
2023-05-02T09:25:23.928Z,101097.75
2023-05-02T09:27:53.589Z,101124.31
2023-05-02T09:30:24.186Z,101120.56
2023-05-02T09:32:53.904Z,101123.50
2023-05-02T09:35:24.658Z,101093.13
2023-05-02T09:37:53.919Z,101123.97
2023-05-02T09:40:24.324Z,101125.19
2023-05-02T09:42:52.609Z,101048.78
2023-05-02T09:45:24.568Z,101139.44
2023-05-02T09:47:53.869Z,101139.91
2023-05-02T09:50:35.474Z,101150.09
2023-05-02T09:53:04.893Z,101132.13
2023-05-02T09:55:34.003Z,101146.28
2023-05-02T09:58:02.151Z,101113.38
2023-05-02T10:00:47.914Z,101152.59
2023-05-02T10:03:18.226Z,101139.38
2023-05-02T10:05:47.841Z,101158.75
2023-05-02T10:08:17.609Z,101158.91
2023-05-02T10:10:52.403Z,101160.81
2023-05-02T10:13:22.316Z,101166.97
2023-05-02T10:15:55.196Z,101144.16
2023-05-02T10:18:28.717Z,101167.81
2023-05-02T10:21:01.012Z,101057.63
2023-05-02T10:23:30.959Z,101173.56
2023-05-02T10:26:00.784Z,101117.97
2023-05-02T10:28:29.425Z,101168.84
2023-05-02T10:30:59.441Z,101173.13
2023-05-02T10:33:27.972Z,101128.25
2023-05-02T10:35:56.046Z,101164.16
2023-05-02T10:38:25.026Z,101164.09
2023-05-02T10:40:57.569Z,101147.25
2023-05-02T10:43:29.764Z,101161.94
2023-05-02T10:45:58.012Z,101183.75
2023-05-02T10:48:27.255Z,101144.69
2023-05-02T10:50:56.519Z,101186.28
2023-05-02T10:53:25.586Z,101195.94
2023-05-02T10:56:18.200Z,101196.13
2023-05-02T10:58:49.054Z,101199.69
2023-05-02T11:01:36.552Z,101175.13
2023-05-02T11:04:06.499Z,101208.31
2023-05-02T11:06:36.145Z,101183.84
2023-05-02T11:09:34.352Z,101210.81
2023-05-02T11:12:05.865Z,101212.78
2023-05-02T11:14:49.685Z,101098.56
2023-05-02T11:17:18.515Z,101183.88
2023-05-02T11:20:29.362Z,101216.56
2023-05-02T11:22:58.838Z,101226.53
2023-05-02T11:25:35.252Z,101206.44
2023-05-02T11:28:03.470Z,101220.94
2023-05-02T11:30:43.727Z,101220.56
2023-05-02T11:33:17.438Z,101181.28
2023-05-02T11:35:46.868Z,101217.25
2023-05-02T11:38:17.428Z,101191.66
2023-05-02T11:40:59.199Z,101217.53
2023-05-02T11:43:31.843Z,101211.25
2023-05-02T11:46:02.831Z,101221.00
2023-05-02T11:48:31.893Z,101216.16
2023-05-02T11:51:05.032Z,101219.16
2023-05-02T11:53:34.208Z,101217.31
2023-05-02T11:56:05.014Z,101215.31
2023-05-02T11:58:34.353Z,101206.78
2023-05-02T12:01:14.831Z,101208.66
2023-05-02T12:03:43.114Z,101217.53
2023-05-02T12:06:12.884Z,101223.19
2023-05-02T12:08:41.967Z,101216.38
2023-05-02T12:11:10.317Z,101192.75
2023-05-02T12:13:46.039Z,101220.13
2023-05-02T12:16:15.766Z,101233.56
2023-05-02T12:18:44.139Z,101235.19
2023-05-02T12:21:12.152Z,101245.31
2023-05-02T12:23:42.391Z,101250.84
2023-05-02T12:26:20.255Z,101250.75
2023-05-02T12:28:52.797Z,101250.91
2023-05-02T12:31:22.695Z,101258.16
2023-05-02T12:33:52.382Z,101262.09
2023-05-02T12:36:20.772Z,101261.22
2023-05-02T12:38:53.290Z,101266.41
2023-05-02T12:41:32.381Z,101265.38
2023-05-02T12:44:01.108Z,101270.34
2023-05-02T12:46:31.464Z,101267.88
2023-05-02T12:49:03.957Z,101248.16
2023-05-02T12:51:33.144Z,101284.13
2023-05-02T12:54:01.411Z,101291.63
2023-05-02T12:56:32.689Z,101277.72
2023-05-02T12:59:04.867Z,101275.56
2023-05-02T13:01:35.569Z,101281.59
2023-05-02T13:04:04.068Z,101250.69
2023-05-02T13:06:32.256Z,101258.97
2023-05-02T13:09:00.260Z,101276.22
2023-05-02T13:11:28.118Z,101254.22
2023-05-02T13:13:56.461Z,101267.78
2023-05-02T13:16:24.368Z,101272.63
2023-05-02T13:18:53.627Z,101286.56
2023-05-02T13:21:21.424Z,101263.97
2023-05-02T13:23:50.538Z,101287.59
2023-05-02T13:26:18.540Z,101286.22
2023-05-02T13:28:46.419Z,101284.63
2023-05-02T13:31:14.244Z,101287.53
2023-05-02T13:33:42.172Z,101290.09
2023-05-02T13:36:11.346Z,101281.31
2023-05-02T13:38:39.427Z,101283.66
2023-05-02T13:41:07.426Z,101295.09
2023-05-02T13:43:35.240Z,101278.19
2023-05-02T13:46:03.138Z,101291.53
2023-05-02T13:48:31.043Z,101298.25
2023-05-02T13:50:58.838Z,101297.19
2023-05-02T13:53:28.046Z,101297.09
2023-05-02T13:55:55.898Z,101296.94
2023-05-02T13:58:23.788Z,101302.72
2023-05-02T14:00:51.994Z,101283.47
2023-05-02T14:03:20.573Z,101297.28
2023-05-02T14:05:48.468Z,101295.28
2023-05-02T14:08:18.575Z,101294.25
2023-05-02T14:10:47.877Z,101300.22
2023-05-02T14:13:15.746Z,101302.47
2023-05-02T14:15:43.671Z,101278.59
2023-05-02T14:18:11.472Z,101298.25
2023-05-02T14:20:39.337Z,101296.44
2023-05-02T14:23:07.728Z,101275.91
2023-05-02T14:25:36.557Z,101291.91
2023-05-02T14:28:06.803Z,101289.44
2023-05-02T14:30:34.828Z,101283.72
2023-05-02T14:33:03.063Z,101290.72
2023-05-02T14:35:30.907Z,101284.88
2023-05-02T14:37:58.904Z,101309.78
2023-05-02T14:40:26.751Z,101298.19
2023-05-02T14:42:54.526Z,101267.63
2023-05-02T14:45:23.713Z,101315.94
2023-05-02T14:47:51.798Z,101265.69
2023-05-02T14:50:19.909Z,101160.94
2023-05-02T14:52:47.682Z,101319.78
2023-05-02T14:55:16.036Z,101320.00
2023-05-02T14:57:43.981Z,101327.91
2023-05-02T15:00:12.901Z,101328.56
2023-05-02T15:02:42.255Z,101327.63
2023-05-02T15:05:12.349Z,101278.94
2023-05-02T15:07:40.626Z,101289.63
2023-05-02T15:10:10.292Z,101339.75
2023-05-02T15:12:38.161Z,101337.50
2023-05-02T15:15:07.073Z,101298.69
2023-05-02T15:17:35.031Z,101314.81
2023-05-02T15:20:05.464Z,101345.81
2023-05-02T15:22:33.535Z,101342.91
2023-05-02T15:25:03.154Z,101343.25
2023-05-02T15:27:32.630Z,101355.59
2023-05-02T15:30:00.804Z,101338.94
2023-05-02T15:32:28.842Z,101360.47
2023-05-02T15:34:56.897Z,101363.56
2023-05-02T15:37:26.292Z,101357.44
2023-05-02T15:39:54.215Z,101356.84
2023-05-02T15:42:22.586Z,101367.03
2023-05-02T15:44:50.412Z,101347.44
2023-05-02T15:47:19.664Z,101366.31
2023-05-02T15:49:51.785Z,101361.47
2023-05-02T15:52:19.530Z,101369.91
2023-05-02T15:54:51.482Z,101364.97
2023-05-02T15:57:19.785Z,101367.09
2023-05-02T15:59:47.765Z,101355.09
2023-05-02T16:02:15.597Z,101371.31
2023-05-02T16:04:43.773Z,101366.47
2023-05-02T16:07:11.710Z,101368.69
2023-05-02T16:09:39.836Z,101371.16
2023-05-02T16:12:09.283Z,101372.13
2023-05-02T16:14:37.262Z,101303.75
2023-05-02T16:17:05.152Z,101327.16
2023-05-02T16:19:32.923Z,101376.34
2023-05-02T16:22:00.902Z,101378.06
2023-05-02T16:24:28.714Z,101386.41
2023-05-02T16:26:56.626Z,101384.66
2023-05-02T16:29:25.831Z,101385.53
2023-05-02T16:31:53.754Z,101142.47
2023-05-02T16:34:21.767Z,101395.13
2023-05-02T16:36:49.733Z,101389.06
2023-05-02T16:39:17.919Z,101381.69
2023-05-02T16:41:46.299Z,101392.53
2023-05-02T16:44:14.402Z,101342.84
2023-05-02T16:46:44.000Z,101394.78
2023-05-02T16:49:11.868Z,101355.97
2023-05-02T16:51:39.697Z,101394.25
2023-05-02T16:54:08.092Z,101388.06
2023-05-02T16:56:36.032Z,101390.13
2023-05-02T16:59:03.981Z,101390.19
2023-05-02T17:01:31.795Z,101389.47
2023-05-02T17:04:01.128Z,101391.22
2023-05-02T17:06:29.464Z,101380.56
2023-05-02T17:08:57.447Z,101394.78
2023-05-02T17:11:25.779Z,101391.16
2023-05-02T17:13:53.706Z,101391.22
2023-05-02T17:16:22.468Z,101379.75
2023-05-02T17:18:50.431Z,101406.56
2023-05-02T17:21:19.758Z,101399.78
2023-05-02T17:23:47.598Z,101400.94
2023-05-02T17:26:15.820Z,101401.75
2023-05-02T17:28:44.909Z,101397.41
2023-05-02T17:31:13.077Z,101404.25
2023-05-02T17:33:42.272Z,101410.63
2023-05-02T17:36:10.458Z,101415.97
2023-05-02T17:38:39.844Z,101285.53
2023-05-02T17:41:07.780Z,101411.06
2023-05-02T17:43:37.976Z,101413.69
2023-05-02T17:46:09.133Z,101410.91
2023-05-02T17:48:37.361Z,101420.75
2023-05-02T17:51:07.024Z,101420.03
2023-05-02T17:53:36.534Z,101349.31
2023-05-02T17:56:06.744Z,101419.88
2023-05-02T17:58:36.401Z,101426.09
2023-05-02T18:01:14.180Z,101421.69
2023-05-02T18:03:42.716Z,101293.69
2023-05-02T18:06:16.641Z,101373.03
2023-05-02T18:08:44.838Z,101405.34
2023-05-02T18:11:17.752Z,101427.19
2023-05-02T18:13:46.372Z,101421.50
2023-05-02T18:16:14.721Z,101436.41
2023-05-02T18:18:42.705Z,101431.13
2023-05-02T18:21:10.505Z,101439.03
2023-05-02T18:23:39.906Z,101438.28
2023-05-02T18:26:13.195Z,101323.44
2023-05-02T18:28:44.465Z,101439.72
2023-05-02T18:31:18.780Z,101442.84
2023-05-02T18:33:47.970Z,101448.41
2023-05-02T18:36:19.231Z,101347.84
2023-05-02T18:38:47.662Z,101443.38
2023-05-02T18:41:16.077Z,101431.06
2023-05-02T18:43:45.370Z,101451.31
2023-05-02T18:46:13.616Z,101447.75
2023-05-02T18:48:41.527Z,101452.00
2023-05-02T18:51:09.718Z,101451.22
2023-05-02T18:53:37.879Z,101446.00
2023-05-02T18:56:13.016Z,101455.44
2023-05-02T18:58:41.002Z,101432.72
2023-05-02T19:01:17.250Z,101428.38
2023-05-02T19:03:45.231Z,101404.59
2023-05-02T19:06:13.869Z,101452.72
2023-05-02T19:08:41.972Z,101459.25
2023-05-02T19:11:09.783Z,101460.09
2023-05-02T19:13:37.832Z,101464.50
2023-05-02T19:16:05.917Z,101441.50
2023-05-02T19:18:35.244Z,101473.44
2023-05-02T19:21:12.246Z,101472.81
2023-05-02T19:23:41.498Z,101426.19
2023-05-02T19:26:13.329Z,101480.78
2023-05-02T19:28:41.513Z,101487.69
2023-05-02T19:31:10.537Z,101490.56
2023-05-02T19:33:40.416Z,101497.00
2023-05-02T19:36:09.077Z,101493.47
2023-05-02T19:38:37.064Z,101493.50
2023-05-02T19:41:04.924Z,101495.38
2023-05-02T19:43:33.008Z,101470.00
2023-05-02T19:46:01.344Z,101500.97
2023-05-02T19:48:29.289Z,101497.34
2023-05-02T19:50:58.598Z,101495.69
2023-05-02T19:53:26.441Z,101502.72
2023-05-02T19:55:54.385Z,101456.13
2023-05-02T19:58:22.214Z,101509.19
2023-05-02T20:00:51.369Z,101512.53
2023-05-02T20:03:19.512Z,101480.00
2023-05-02T20:05:47.886Z,101526.38
2023-05-02T20:08:17.970Z,101525.41
2023-05-02T20:10:47.189Z,101525.41
2023-05-02T20:13:14.990Z,101524.66
2023-05-02T20:15:43.006Z,101531.03
2023-05-02T20:18:10.916Z,101533.56
2023-05-02T20:20:39.229Z,101533.63
2023-05-02T20:23:07.128Z,101537.09
2023-05-02T20:25:36.337Z,101539.13
2023-05-02T20:28:04.201Z,101436.66
2023-05-02T20:30:32.030Z,101532.25
2023-05-02T20:33:10.625Z,101505.75
2023-05-02T20:35:43.309Z,101475.03
2023-05-02T20:38:11.306Z,101520.34
2023-05-02T20:40:42.673Z,101541.69
2023-05-02T20:43:11.817Z,101539.00
2023-05-02T20:45:40.130Z,101543.47
2023-05-02T20:48:08.136Z,101553.34
2023-05-02T20:50:36.264Z,101495.94
2023-05-02T20:53:04.520Z,101542.06
2023-05-02T20:55:32.384Z,101556.06
2023-05-02T20:58:01.666Z,101553.56
2023-05-02T21:00:29.451Z,101566.19
2023-05-02T21:02:57.295Z,101528.16
2023-05-02T21:05:25.155Z,101538.97
2023-05-02T21:07:53.050Z,101539.88
2023-05-02T21:10:22.951Z,101532.94
2023-05-02T21:12:51.083Z,101569.41
2023-05-02T21:15:20.344Z,101550.88
2023-05-02T21:17:48.344Z,101556.22
2023-05-02T21:20:16.426Z,101557.16
2023-05-02T21:22:44.462Z,101558.97
2023-05-02T21:25:12.910Z,101482.03
2023-05-02T21:27:40.885Z,101547.63
2023-05-02T21:30:10.156Z,101559.09
2023-05-02T21:32:39.513Z,101540.63
2023-05-02T21:35:08.032Z,101536.31
2023-05-02T21:37:36.004Z,101563.75
2023-05-02T21:40:04.363Z,101567.34
2023-05-02T21:42:32.414Z,101564.78
2023-05-02T21:45:00.530Z,101557.72
2023-05-02T21:47:28.553Z,101563.19
2023-05-02T21:49:58.156Z,101570.22
2023-05-02T21:52:26.101Z,101517.16
2023-05-02T21:54:54.199Z,101565.06
2023-05-02T21:57:22.115Z,101571.38
2023-05-02T21:59:50.067Z,101565.13
2023-05-02T22:02:18.064Z,101545.78
2023-05-02T22:04:48.130Z,101544.16
2023-05-02T22:07:17.564Z,101522.88
2023-05-02T22:09:46.088Z,101552.03
2023-05-02T22:12:13.949Z,101560.03
2023-05-02T22:14:45.663Z,101563.59
2023-05-02T22:17:14.135Z,101561.88
2023-05-02T22:19:42.011Z,101537.16
2023-05-02T22:22:09.852Z,101562.91
2023-05-02T22:24:39.186Z,101554.13
2023-05-02T22:27:07.551Z,101576.25
2023-05-02T22:29:35.401Z,101578.06
2023-05-02T22:32:03.321Z,101554.22
2023-05-02T22:34:31.316Z,101588.81
2023-05-02T22:36:59.242Z,101588.81
2023-05-02T22:39:27.716Z,101535.63
2023-05-02T22:41:57.188Z,101576.41
2023-05-02T22:44:25.026Z,101571.94
2023-05-02T22:46:53.001Z,101598.56
2023-05-02T22:49:21.306Z,101571.97
2023-05-02T22:51:49.390Z,101582.63
2023-05-02T22:54:17.261Z,101591.50
2023-05-02T22:56:45.453Z,101602.16
2023-05-02T22:59:15.659Z,101598.59
2023-05-02T23:01:43.682Z,101565.81
2023-05-02T23:04:11.688Z,101596.81
2023-05-02T23:06:39.482Z,101592.38
2023-05-02T23:09:08.284Z,101600.38
2023-05-02T23:11:36.446Z,101599.47
2023-05-02T23:14:04.327Z,101582.63
2023-05-02T23:16:33.673Z,101564.03
2023-05-02T23:19:01.616Z,101597.75
2023-05-02T23:21:29.410Z,101596.91
2023-05-02T23:23:57.285Z,101598.69
2023-05-02T23:26:25.209Z,101594.25
2023-05-02T23:28:52.991Z,101592.47
2023-05-02T23:31:21.057Z,101596.91
2023-05-02T23:33:50.327Z,101577.38
2023-05-02T23:36:18.304Z,101588.91
2023-05-02T23:38:46.548Z,101493.13
2023-05-02T23:41:14.505Z,101574.69
2023-05-02T23:43:42.391Z,101509.94
2023-05-02T23:46:10.384Z,101607.50
2023-05-02T23:48:38.335Z,101603.09
2023-05-02T23:51:07.614Z,101607.56
2023-05-02T23:53:35.480Z,101566.72
2023-05-02T23:56:03.358Z,101597.78
2023-05-02T23:58:31.338Z,101587.09
